East Haddam, CT (06423)

3:53 AM EDT on August 20, 2014 (GMT -0400)
Hadlyme | Change Station
CLOSE
Current Station
Personal Weather Station
Location: East Haddam, CT
Elevation: 312 ft
Nearby Weather Stations

Elev 312 ft 41.44 °N, 72.38 °W | Updated 3 minutes ago

Fog
Fog
59.2 °F
Feels Like 59.2 °F
N
0.0
Wind Variable Wind from East
Gusts 0.0 mph

Today
High -- | Low -- °F
--% Chance of Precip.
Yesterday
High -- | Low -- °F
Precip. -- in
6:03 AM 7:41 PM
Waning Crescent, 23% visible
Pressure 29.98 in
Visibility 0.2 miles
Clouds Overcast 100 ft
Dew Point 54 °F
Humidity 82%
Rainfall 0.00 in
Snow Depth Not available.
UV 0 out of 12
Pollen 9.50 out of 12
Ozone Good
Flu Activity Not available.
METAR KSNC 200735Z AUTO 00000KT 1/4SM FG OVC001 16/16 A2998 RMK AO2

More Conditions Fewer Conditions

Pressure 29.98 in
Visibility 0.2 miles
Clouds Overcast 100 ft
Dew Point 54 °F
Humidity 82%
Rainfall 0.00 in
Snow Depth Not available.
UV 0 out of 12
Pollen 9.50 out of 12
Ozone Good
Flu Activity Not available.
METAR KSNC 200735Z AUTO 00000KT 1/4SM FG OVC001 16/16 A2998 RMK AO2

More Conditions Fewer Conditions

10-Day Weather Forecast

Almanac

Astronomy

Aug. 20, 2014 Rise Set
Actual Time 6:03 AM EDT 7:41 PM EDT
Civil Twilight 5:34 AM EDT 8:10 PM EDT
Nautical Twilight 4:58 AM EDT 8:46 PM EDT
Astronomical Twilight 4:20 AM EDT 9:24 PM EDT
Moon 1:39 AM EDT 4:25 PM EDT
Length of Visible Light 14h 36m
Length of Day
13h 38m
Tomorrow will be 2m 33s shorter.
Waning Crescent, 23% of the Moon is Illuminated
Today
Waning Crescent
Aug 25
New
Sep 2
First Quarter
Sep 8
Full
Sep 15
Last Quarter

Today's Extremes

State Highs State Lows

Community

WunderPhotos

Upload Photos

1,745,592 photos uploaded!

Nearby

Air Quality

  Air Quality AQ Index Pollutant
Yesterday Good
OZONE
Current Good
OZONE
Wednesday Good
OZONE
Wednesday Good
PM2.5

Snow Depth

Station Depth Elevation
No new snow has been reported.

Earthquake Activity

City Distance Mag. Time & Date
Deep River Center, Connecticut 9 miles 2.7 3:09 AM EDT
2014-08-14
Minimum magnitude displayed is 2.5.

Coastal Water Temperatures

Place Temperature
New London, CT 70.0 °F
Newport, RI 70.0 °F
Quonset Point, RI 71.1 °F
Conimicut Light, RI 73.0 °F
Providence, RI 72.0 °F

Nearby Weather Stations